sensor_id;sensor_type;location;lat;lon;timestamp;P1;durP1;ratioP1;P2;durP2;ratioP2
67979;SDS011;54760;47.490;19.030;2022-12-29T00:01:43;20.80;;;11.02;;
67979;SDS011;54760;47.490;19.030;2022-12-29T00:04:09;18.00;;;10.85;;
67979;SDS011;54760;47.490;19.030;2022-12-29T00:06:37;19.17;;;10.45;;
67979;SDS011;54760;47.490;19.030;2022-12-29T00:09:03;20.23;;;10.85;;
67979;SDS011;54760;47.490;19.030;2022-12-29T00:11:28;20.52;;;10.77;;
67979;SDS011;54760;47.490;19.030;2022-12-29T00:13:54;18.80;;;11.35;;
67979;SDS011;54760;47.490;19.030;2022-12-29T00:16:42;24.77;;;11.20;;
67979;SDS011;54760;47.490;19.030;2022-12-29T00:19:10;19.85;;;10.35;;
67979;SDS011;54760;47.490;19.030;2022-12-29T00:21:56;20.80;;;11.18;;
67979;SDS011;54760;47.490;19.030;2022-12-29T00:24:41;16.65;;;10.27;;
67979;SDS011;54760;47.490;19.030;2022-12-29T00:27:18;18.65;;;10.20;;
67979;SDS011;54760;47.490;19.030;2022-12-29T00:30:07;17.73;;;10.68;;
67979;SDS011;54760;47.490;19.030;2022-12-29T00:32:53;18.48;;;10.30;;
67979;SDS011;54760;47.490;19.030;2022-12-29T00:35:45;17.05;;;10.48;;
67979;SDS011;54760;47.490;19.030;2022-12-29T00:38:17;18.83;;;10.98;;
67979;SDS011;54760;47.490;19.030;2022-12-29T00:41:01;17.67;;;10.23;;
67979;SDS011;54760;47.490;19.030;2022-12-29T00:43:45;22.00;;;10.82;;
67979;SDS011;54760;47.490;19.030;2022-12-29T00:46:29;17.62;;;11.00;;
67979;SDS011;54760;47.490;19.030;2022-12-29T00:48:55;17.83;;;10.35;;
67979;SDS011;54760;47.490;19.030;2022-12-29T00:51:40;23.83;;;10.52;;
67979;SDS011;54760;47.490;19.030;2022-12-29T00:54:05;21.37;;;11.48;;
67979;SDS011;54760;47.490;19.030;2022-12-29T00:56:31;19.17;;;11.10;;
67979;SDS011;54760;47.490;19.030;2022-12-29T00:58:59;22.10;;;10.85;;
67979;SDS011;54760;47.490;19.030;2022-12-29T01:01:29;18.98;;;10.68;;
67979;SDS011;54760;47.490;19.030;2022-12-29T01:03:55;17.75;;;10.30;;
67979;SDS011;54760;47.490;19.030;2022-12-29T01:06:20;16.48;;;10.55;;
67979;SDS011;54760;47.490;19.030;2022-12-29T01:08:46;18.87;;;10.88;;
67979;SDS011;54760;47.490;19.030;2022-12-29T01:11:12;18.70;;;10.52;;
67979;SDS011;54760;47.490;19.030;2022-12-29T01:13:38;17.60;;;10.70;;
67979;SDS011;54760;47.490;19.030;2022-12-29T01:16:06;16.48;;;10.88;;
67979;SDS011;54760;47.490;19.030;2022-12-29T01:18:31;19.95;;;10.77;;
67979;SDS011;54760;47.490;19.030;2022-12-29T01:21:00;17.92;;;9.93;;
67979;SDS011;54760;47.490;19.030;2022-12-29T01:23:27;16.52;;;10.50;;
67979;SDS011;54760;47.490;19.030;2022-12-29T01:25:53;17.90;;;10.05;;
67979;SDS011;54760;47.490;19.030;2022-12-29T01:28:19;17.17;;;10.65;;
67979;SDS011;54760;47.490;19.030;2022-12-29T01:30:44;19.45;;;10.40;;
67979;SDS011;54760;47.490;19.030;2022-12-29T01:33:09;18.83;;;10.18;;
67979;SDS011;54760;47.490;19.030;2022-12-29T01:35:35;19.80;;;11.60;;
67979;SDS011;54760;47.490;19.030;2022-12-29T01:38:01;17.20;;;10.27;;
67979;SDS011;54760;47.490;19.030;2022-12-29T01:40:26;21.85;;;10.75;;
67979;SDS011;54760;47.490;19.030;2022-12-29T01:42:51;18.80;;;9.90;;
67979;SDS011;54760;47.490;19.030;2022-12-29T01:45:17;17.77;;;9.95;;
67979;SDS011;54760;47.490;19.030;2022-12-29T01:47:44;18.20;;;10.10;;
67979;SDS011;54760;47.490;19.030;2022-12-29T01:50:15;20.45;;;10.30;;
67979;SDS011;54760;47.490;19.030;2022-12-29T01:52:58;17.95;;;9.77;;
67979;SDS011;54760;47.490;19.030;2022-12-29T01:55:27;19.67;;;9.98;;
67979;SDS011;54760;47.490;19.030;2022-12-29T01:57:55;20.20;;;10.27;;
67979;SDS011;54760;47.490;19.030;2022-12-29T02:00:25;14.95;;;9.23;;
67979;SDS011;54760;47.490;19.030;2022-12-29T02:02:52;16.60;;;9.95;;
67979;SDS011;54760;47.490;19.030;2022-12-29T02:05:27;17.87;;;9.52;;
67979;SDS011;54760;47.490;19.030;2022-12-29T02:08:02;17.17;;;9.68;;
67979;SDS011;54760;47.490;19.030;2022-12-29T02:10:30;17.30;;;10.15;;
67979;SDS011;54760;47.490;19.030;2022-12-29T02:12:57;16.10;;;9.82;;
67979;SDS011;54760;47.490;19.030;2022-12-29T02:15:27;16.75;;;9.80;;
67979;SDS011;54760;47.490;19.030;2022-12-29T02:18:25;14.85;;;10.00;;
67979;SDS011;54760;47.490;19.030;2022-12-29T02:24:39;15.20;;;9.32;;
67979;SDS011;54760;47.490;19.030;2022-12-29T02:27:15;15.50;;;9.70;;
67979;SDS011;54760;47.490;19.030;2022-12-29T02:30:12;17.87;;;9.98;;
67979;SDS011;54760;47.490;19.030;2022-12-29T02:32:56;16.80;;;9.45;;
67979;SDS011;54760;47.490;19.030;2022-12-29T02:36:06;18.65;;;9.65;;
67979;SDS011;54760;47.490;19.030;2022-12-29T02:38:52;16.08;;;8.77;;
67979;SDS011;54760;47.490;19.030;2022-12-29T02:44:14;16.55;;;9.60;;
67979;SDS011;54760;47.490;19.030;2022-12-29T02:49:38;15.18;;;9.45;;
67979;SDS011;54760;47.490;19.030;2022-12-29T02:52:15;18.25;;;10.55;;
67979;SDS011;54760;47.490;19.030;2022-12-29T02:54:44;14.80;;;9.13;;
67979;SDS011;54760;47.490;19.030;2022-12-29T02:59:38;16.77;;;10.02;;
67979;SDS011;54760;47.490;19.030;2022-12-29T03:07:43;17.35;;;9.65;;
67979;SDS011;54760;47.490;19.030;2022-12-29T03:13:23;15.63;;;9.27;;
67979;SDS011;54760;47.490;19.030;2022-12-29T03:16:23;15.52;;;9.25;;
67979;SDS011;54760;47.490;19.030;2022-12-29T03:24:35;17.80;;;9.15;;
67979;SDS011;54760;47.490;19.030;2022-12-29T03:29:33;15.07;;;8.95;;
67979;SDS011;54760;47.490;19.030;2022-12-29T03:32:03;24.23;;;10.63;;
67979;SDS011;54760;47.490;19.030;2022-12-29T03:34:31;13.95;;;9.05;;
67979;SDS011;54760;47.490;19.030;2022-12-29T03:37:02;15.80;;;9.02;;
67979;SDS011;54760;47.490;19.030;2022-12-29T03:39:33;15.70;;;9.32;;
67979;SDS011;54760;47.490;19.030;2022-12-29T03:41:59;16.05;;;9.65;;
67979;SDS011;54760;47.490;19.030;2022-12-29T03:44:35;16.05;;;9.98;;
67979;SDS011;54760;47.490;19.030;2022-12-29T03:47:02;16.27;;;10.25;;
67979;SDS011;54760;47.490;19.030;2022-12-29T03:49:29;15.93;;;9.68;;
67979;SDS011;54760;47.490;19.030;2022-12-29T03:51:54;16.12;;;9.15;;
67979;SDS011;54760;47.490;19.030;2022-12-29T03:54:19;16.50;;;10.30;;
67979;SDS011;54760;47.490;19.030;2022-12-29T03:56:45;19.15;;;10.02;;
67979;SDS011;54760;47.490;19.030;2022-12-29T03:59:10;18.55;;;10.02;;
67979;SDS011;54760;47.490;19.030;2022-12-29T04:01:36;16.90;;;9.65;;
67979;SDS011;54760;47.490;19.030;2022-12-29T04:04:01;18.87;;;9.70;;
67979;SDS011;54760;47.490;19.030;2022-12-29T04:06:26;16.90;;;9.52;;
67979;SDS011;54760;47.490;19.030;2022-12-29T04:08:52;16.15;;;9.68;;
67979;SDS011;54760;47.490;19.030;2022-12-29T04:11:17;13.02;;;9.02;;
67979;SDS011;54760;47.490;19.030;2022-12-29T04:13:43;17.80;;;10.00;;
67979;SDS011;54760;47.490;19.030;2022-12-29T04:16:08;16.92;;;9.38;;
67979;SDS011;54760;47.490;19.030;2022-12-29T04:18:33;18.00;;;10.27;;
67979;SDS011;54760;47.490;19.030;2022-12-29T04:20:59;17.80;;;10.25;;
67979;SDS011;54760;47.490;19.030;2022-12-29T04:23:25;17.45;;;11.25;;
67979;SDS011;54760;47.490;19.030;2022-12-29T04:25:51;16.92;;;9.77;;
67979;SDS011;54760;47.490;19.030;2022-12-29T04:28:16;19.23;;;9.48;;
67979;SDS011;54760;47.490;19.030;2022-12-29T04:30:42;16.60;;;9.70;;
67979;SDS011;54760;47.490;19.030;2022-12-29T04:33:08;17.00;;;9.90;;
67979;SDS011;54760;47.490;19.030;2022-12-29T04:35:34;18.83;;;9.85;;
67979;SDS011;54760;47.490;19.030;2022-12-29T04:38:00;18.77;;;9.40;;
67979;SDS011;54760;47.490;19.030;2022-12-29T04:40:26;17.87;;;10.18;;
67979;SDS011;54760;47.490;19.030;2022-12-29T04:42:51;16.30;;;10.55;;
67979;SDS011;54760;47.490;19.030;2022-12-29T04:45:16;15.43;;;9.57;;
67979;SDS011;54760;47.490;19.030;2022-12-29T04:47:42;17.52;;;10.30;;
67979;SDS011;54760;47.490;19.030;2022-12-29T04:50:07;15.77;;;9.85;;
67979;SDS011;54760;47.490;19.030;2022-12-29T04:52:33;15.70;;;9.63;;
67979;SDS011;54760;47.490;19.030;2022-12-29T04:54:59;19.42;;;9.75;;
67979;SDS011;54760;47.490;19.030;2022-12-29T04:57:24;16.80;;;9.40;;
67979;SDS011;54760;47.490;19.030;2022-12-29T04:59:50;19.65;;;10.98;;
67979;SDS011;54760;47.490;19.030;2022-12-29T05:02:16;17.80;;;10.90;;
67979;SDS011;54760;47.490;19.030;2022-12-29T05:04:41;21.95;;;11.02;;
67979;SDS011;54760;47.490;19.030;2022-12-29T05:07:07;20.17;;;10.07;;
67979;SDS011;54760;47.490;19.030;2022-12-29T05:09:32;20.77;;;10.73;;
67979;SDS011;54760;47.490;19.030;2022-12-29T05:11:58;17.95;;;10.20;;
67979;SDS011;54760;47.490;19.030;2022-12-29T05:14:24;20.58;;;11.05;;
67979;SDS011;54760;47.490;19.030;2022-12-29T05:16:49;17.65;;;11.02;;
67979;SDS011;54760;47.490;19.030;2022-12-29T05:19:15;20.33;;;11.55;;
67979;SDS011;54760;47.490;19.030;2022-12-29T05:21:41;22.67;;;11.63;;
67979;SDS011;54760;47.490;19.030;2022-12-29T05:24:07;26.25;;;12.80;;
67979;SDS011;54760;47.490;19.030;2022-12-29T05:26:33;21.05;;;11.60;;
67979;SDS011;54760;47.490;19.030;2022-12-29T05:28:59;22.58;;;12.07;;
67979;SDS011;54760;47.490;19.030;2022-12-29T05:31:25;20.33;;;11.32;;
67979;SDS011;54760;47.490;19.030;2022-12-29T05:33:51;20.95;;;12.32;;
67979;SDS011;54760;47.490;19.030;2022-12-29T05:36:16;18.50;;;11.77;;
67979;SDS011;54760;47.490;19.030;2022-12-29T05:38:42;20.37;;;11.60;;
67979;SDS011;54760;47.490;19.030;2022-12-29T05:41:07;21.23;;;12.65;;
67979;SDS011;54760;47.490;19.030;2022-12-29T05:43:32;19.08;;;11.77;;
67979;SDS011;54760;47.490;19.030;2022-12-29T05:45:58;19.83;;;12.00;;
67979;SDS011;54760;47.490;19.030;2022-12-29T05:48:23;23.70;;;11.95;;
67979;SDS011;54760;47.490;19.030;2022-12-29T05:50:49;21.15;;;11.73;;
67979;SDS011;54760;47.490;19.030;2022-12-29T05:53:16;24.45;;;11.80;;
67979;SDS011;54760;47.490;19.030;2022-12-29T05:55:42;20.40;;;11.65;;
67979;SDS011;54760;47.490;19.030;2022-12-29T05:58:08;21.77;;;12.73;;
67979;SDS011;54760;47.490;19.030;2022-12-29T06:00:34;21.37;;;11.98;;
67979;SDS011;54760;47.490;19.030;2022-12-29T06:02:59;17.10;;;11.57;;
67979;SDS011;54760;47.490;19.030;2022-12-29T06:05:25;22.35;;;12.52;;
67979;SDS011;54760;47.490;19.030;2022-12-29T06:07:50;21.48;;;12.60;;
67979;SDS011;54760;47.490;19.030;2022-12-29T06:10:16;24.05;;;13.62;;
67979;SDS011;54760;47.490;19.030;2022-12-29T06:12:42;20.30;;;12.80;;
67979;SDS011;54760;47.490;19.030;2022-12-29T06:15:07;19.62;;;12.35;;
67979;SDS011;54760;47.490;19.030;2022-12-29T06:17:33;20.98;;;12.75;;
67979;SDS011;54760;47.490;19.030;2022-12-29T06:19:59;21.30;;;12.30;;
67979;SDS011;54760;47.490;19.030;2022-12-29T06:22:24;20.98;;;13.27;;
67979;SDS011;54760;47.490;19.030;2022-12-29T06:24:49;24.33;;;12.80;;
67979;SDS011;54760;47.490;19.030;2022-12-29T06:27:15;20.17;;;12.37;;
67979;SDS011;54760;47.490;19.030;2022-12-29T06:29:41;19.33;;;11.95;;
67979;SDS011;54760;47.490;19.030;2022-12-29T06:32:07;23.15;;;13.20;;
67979;SDS011;54760;47.490;19.030;2022-12-29T06:34:33;20.42;;;12.63;;
67979;SDS011;54760;47.490;19.030;2022-12-29T06:36:59;20.17;;;12.20;;
67979;SDS011;54760;47.490;19.030;2022-12-29T06:39:24;20.27;;;12.45;;
67979;SDS011;54760;47.490;19.030;2022-12-29T06:41:53;22.58;;;12.57;;
67979;SDS011;54760;47.490;19.030;2022-12-29T06:44:22;22.17;;;12.60;;
67979;SDS011;54760;47.490;19.030;2022-12-29T06:46:47;22.73;;;12.00;;
67979;SDS011;54760;47.490;19.030;2022-12-29T06:49:13;21.20;;;11.95;;
67979;SDS011;54760;47.490;19.030;2022-12-29T06:51:38;21.75;;;12.55;;
67979;SDS011;54760;47.490;19.030;2022-12-29T06:54:04;23.38;;;13.20;;
67979;SDS011;54760;47.490;19.030;2022-12-29T06:56:30;19.83;;;12.32;;
67979;SDS011;54760;47.490;19.030;2022-12-29T06:58:56;21.42;;;12.27;;
67979;SDS011;54760;47.490;19.030;2022-12-29T07:01:22;22.15;;;12.73;;
67979;SDS011;54760;47.490;19.030;2022-12-29T07:03:47;19.85;;;12.25;;
67979;SDS011;54760;47.490;19.030;2022-12-29T07:06:13;23.92;;;12.98;;
67979;SDS011;54760;47.490;19.030;2022-12-29T07:08:38;23.12;;;13.15;;
67979;SDS011;54760;47.490;19.030;2022-12-29T07:11:04;21.30;;;12.50;;
67979;SDS011;54760;47.490;19.030;2022-12-29T07:13:30;20.30;;;12.32;;
67979;SDS011;54760;47.490;19.030;2022-12-29T07:15:55;22.67;;;14.07;;
67979;SDS011;54760;47.490;19.030;2022-12-29T07:18:21;27.35;;;13.18;;
67979;SDS011;54760;47.490;19.030;2022-12-29T07:20:46;23.15;;;14.27;;
67979;SDS011;54760;47.490;19.030;2022-12-29T07:23:11;23.83;;;14.73;;
67979;SDS011;54760;47.490;19.030;2022-12-29T07:25:37;20.50;;;12.88;;
67979;SDS011;54760;47.490;19.030;2022-12-29T07:28:05;23.83;;;13.55;;
67979;SDS011;54760;47.490;19.030;2022-12-29T07:30:30;21.17;;;13.70;;
67979;SDS011;54760;47.490;19.030;2022-12-29T07:32:56;23.08;;;13.25;;
67979;SDS011;54760;47.490;19.030;2022-12-29T07:35:21;23.35;;;13.35;;
67979;SDS011;54760;47.490;19.030;2022-12-29T07:37:47;23.85;;;14.23;;
67979;SDS011;54760;47.490;19.030;2022-12-29T07:40:12;26.02;;;13.95;;
67979;SDS011;54760;47.490;19.030;2022-12-29T07:42:38;25.20;;;13.82;;
67979;SDS011;54760;47.490;19.030;2022-12-29T07:45:04;30.55;;;14.40;;
67979;SDS011;54760;47.490;19.030;2022-12-29T07:47:30;26.20;;;14.40;;
67979;SDS011;54760;47.490;19.030;2022-12-29T07:49:55;27.02;;;14.60;;
67979;SDS011;54760;47.490;19.030;2022-12-29T07:52:21;28.27;;;14.80;;
67979;SDS011;54760;47.490;19.030;2022-12-29T07:54:46;24.40;;;14.57;;
67979;SDS011;54760;47.490;19.030;2022-12-29T07:57:12;23.12;;;13.32;;
67979;SDS011;54760;47.490;19.030;2022-12-29T07:59:37;23.00;;;13.77;;
67979;SDS011;54760;47.490;19.030;2022-12-29T08:02:02;25.95;;;14.30;;
67979;SDS011;54760;47.490;19.030;2022-12-29T08:04:28;23.58;;;14.05;;
67979;SDS011;54760;47.490;19.030;2022-12-29T08:06:53;24.15;;;14.60;;
67979;SDS011;54760;47.490;19.030;2022-12-29T08:09:19;29.50;;;15.32;;
67979;SDS011;54760;47.490;19.030;2022-12-29T08:11:44;27.17;;;15.27;;
67979;SDS011;54760;47.490;19.030;2022-12-29T08:14:10;25.45;;;14.30;;
67979;SDS011;54760;47.490;19.030;2022-12-29T08:16:35;24.70;;;14.38;;
67979;SDS011;54760;47.490;19.030;2022-12-29T08:19:00;24.60;;;14.95;;
67979;SDS011;54760;47.490;19.030;2022-12-29T08:21:26;27.60;;;15.35;;
67979;SDS011;54760;47.490;19.030;2022-12-29T08:23:52;27.35;;;15.95;;
67979;SDS011;54760;47.490;19.030;2022-12-29T08:26:18;25.20;;;15.00;;
67979;SDS011;54760;47.490;19.030;2022-12-29T08:28:43;27.23;;;15.32;;
67979;SDS011;54760;47.490;19.030;2022-12-29T08:31:09;25.95;;;15.20;;
67979;SDS011;54760;47.490;19.030;2022-12-29T08:33:34;30.45;;;15.93;;
67979;SDS011;54760;47.490;19.030;2022-12-29T08:36:03;25.52;;;14.98;;
67979;SDS011;54760;47.490;19.030;2022-12-29T08:38:31;27.50;;;15.77;;
67979;SDS011;54760;47.490;19.030;2022-12-29T08:40:57;26.17;;;16.15;;
67979;SDS011;54760;47.490;19.030;2022-12-29T08:43:23;27.08;;;16.55;;
67979;SDS011;54760;47.490;19.030;2022-12-29T08:45:50;31.50;;;16.55;;
67979;SDS011;54760;47.490;19.030;2022-12-29T08:48:15;29.27;;;16.02;;
67979;SDS011;54760;47.490;19.030;2022-12-29T08:50:44;29.50;;;16.87;;
67979;SDS011;54760;47.490;19.030;2022-12-29T08:53:10;31.40;;;15.77;;
67979;SDS011;54760;47.490;19.030;2022-12-29T08:55:36;30.27;;;17.15;;
67979;SDS011;54760;47.490;19.030;2022-12-29T08:58:01;30.65;;;16.12;;
67979;SDS011;54760;47.490;19.030;2022-12-29T09:00:26;29.52;;;16.25;;
67979;SDS011;54760;47.490;19.030;2022-12-29T09:02:52;32.75;;;17.95;;
67979;SDS011;54760;47.490;19.030;2022-12-29T09:05:17;29.83;;;16.12;;
67979;SDS011;54760;47.490;19.030;2022-12-29T09:07:43;25.33;;;15.65;;
67979;SDS011;54760;47.490;19.030;2022-12-29T09:10:08;27.77;;;16.45;;
67979;SDS011;54760;47.490;19.030;2022-12-29T09:12:34;26.45;;;15.75;;
67979;SDS011;54760;47.490;19.030;2022-12-29T09:14:59;26.73;;;16.35;;
67979;SDS011;54760;47.490;19.030;2022-12-29T09:17:25;32.22;;;16.73;;
67979;SDS011;54760;47.490;19.030;2022-12-29T09:20:05;26.30;;;16.12;;
67979;SDS011;54760;47.490;19.030;2022-12-29T09:22:31;28.60;;;16.77;;
67979;SDS011;54760;47.490;19.030;2022-12-29T09:24:57;27.80;;;17.02;;
67979;SDS011;54760;47.490;19.030;2022-12-29T09:27:22;29.30;;;16.90;;
67979;SDS011;54760;47.490;19.030;2022-12-29T09:29:48;27.08;;;16.98;;
67979;SDS011;54760;47.490;19.030;2022-12-29T09:32:13;27.13;;;16.40;;
67979;SDS011;54760;47.490;19.030;2022-12-29T09:34:38;29.83;;;15.95;;
67979;SDS011;54760;47.490;19.030;2022-12-29T09:37:04;28.35;;;16.70;;
67979;SDS011;54760;47.490;19.030;2022-12-29T09:39:29;31.52;;;16.02;;
67979;SDS011;54760;47.490;19.030;2022-12-29T09:47:38;30.05;;;16.87;;
67979;SDS011;54760;47.490;19.030;2022-12-29T09:50:14;27.67;;;17.17;;
67979;SDS011;54760;47.490;19.030;2022-12-29T09:52:44;28.00;;;17.40;;
67979;SDS011;54760;47.490;19.030;2022-12-29T09:55:19;27.83;;;15.88;;
67979;SDS011;54760;47.490;19.030;2022-12-29T09:57:58;28.20;;;17.17;;
67979;SDS011;54760;47.490;19.030;2022-12-29T10:03:24;26.90;;;17.10;;
67979;SDS011;54760;47.490;19.030;2022-12-29T10:08:39;28.58;;;17.20;;
67979;SDS011;54760;47.490;19.030;2022-12-29T10:17:01;25.83;;;17.60;;
67979;SDS011;54760;47.490;19.030;2022-12-29T10:24:55;31.67;;;17.52;;
67979;SDS011;54760;47.490;19.030;2022-12-29T10:27:22;31.60;;;18.05;;
67979;SDS011;54760;47.490;19.030;2022-12-29T10:29:50;31.85;;;17.95;;
67979;SDS011;54760;47.490;19.030;2022-12-29T10:32:38;31.95;;;17.77;;
67979;SDS011;54760;47.490;19.030;2022-12-29T10:35:16;27.30;;;16.48;;
67979;SDS011;54760;47.490;19.030;2022-12-29T10:40:33;31.17;;;17.27;;
67979;SDS011;54760;47.490;19.030;2022-12-29T10:43:51;27.70;;;16.98;;
67979;SDS011;54760;47.490;19.030;2022-12-29T10:45:52;23.85;;;15.55;;
67979;SDS011;54760;47.490;19.030;2022-12-29T10:48:28;25.33;;;16.37;;
67979;SDS011;54760;47.490;19.030;2022-12-29T10:50:58;28.92;;;16.75;;
67979;SDS011;54760;47.490;19.030;2022-12-29T10:53:27;28.00;;;17.48;;
67979;SDS011;54760;47.490;19.030;2022-12-29T10:56:04;27.92;;;17.33;;
67979;SDS011;54760;47.490;19.030;2022-12-29T10:58:40;27.98;;;17.45;;
67979;SDS011;54760;47.490;19.030;2022-12-29T11:01:08;31.70;;;17.55;;
67979;SDS011;54760;47.490;19.030;2022-12-29T11:06:49;34.00;;;18.37;;
67979;SDS011;54760;47.490;19.030;2022-12-29T11:09:16;29.45;;;17.80;;
67979;SDS011;54760;47.490;19.030;2022-12-29T11:11:48;31.60;;;17.42;;
67979;SDS011;54760;47.490;19.030;2022-12-29T11:14:16;28.17;;;18.00;;
67979;SDS011;54760;47.490;19.030;2022-12-29T11:16:44;32.78;;;18.02;;
67979;SDS011;54760;47.490;19.030;2022-12-29T11:19:19;30.05;;;18.05;;
67979;SDS011;54760;47.490;19.030;2022-12-29T11:21:50;30.70;;;17.60;;
67979;SDS011;54760;47.490;19.030;2022-12-29T11:24:26;28.75;;;17.52;;
67979;SDS011;54760;47.490;19.030;2022-12-29T11:27:15;29.92;;;18.25;;
67979;SDS011;54760;47.490;19.030;2022-12-29T11:29:44;29.58;;;17.80;;
67979;SDS011;54760;47.490;19.030;2022-12-29T11:32:18;28.35;;;18.33;;
67979;SDS011;54760;47.490;19.030;2022-12-29T11:34:45;32.13;;;18.58;;
67979;SDS011;54760;47.490;19.030;2022-12-29T11:39:56;29.45;;;18.65;;
67979;SDS011;54760;47.490;19.030;2022-12-29T11:42:35;29.17;;;18.35;;
67979;SDS011;54760;47.490;19.030;2022-12-29T11:47:45;27.30;;;18.58;;
67979;SDS011;54760;47.490;19.030;2022-12-29T11:50:18;33.35;;;18.87;;
67979;SDS011;54760;47.490;19.030;2022-12-29T11:52:47;27.27;;;18.70;;
67979;SDS011;54760;47.490;19.030;2022-12-29T11:55:20;31.37;;;19.45;;
67979;SDS011;54760;47.490;19.030;2022-12-29T11:57:48;35.35;;;19.40;;
67979;SDS011;54760;47.490;19.030;2022-12-29T12:00:21;29.58;;;19.15;;
67979;SDS011;54760;47.490;19.030;2022-12-29T12:06:00;33.25;;;18.52;;
67979;SDS011;54760;47.490;19.030;2022-12-29T12:11:12;28.20;;;18.48;;
67979;SDS011;54760;47.490;19.030;2022-12-29T12:13:53;31.70;;;18.83;;
67979;SDS011;54760;47.490;19.030;2022-12-29T12:16:27;29.05;;;19.35;;
67979;SDS011;54760;47.490;19.030;2022-12-29T12:19:09;32.10;;;19.85;;
67979;SDS011;54760;47.490;19.030;2022-12-29T12:21:41;35.05;;;19.45;;
67979;SDS011;54760;47.490;19.030;2022-12-29T12:27:00;32.00;;;20.33;;
67979;SDS011;54760;47.490;19.030;2022-12-29T12:32:29;31.83;;;18.98;;
67979;SDS011;54760;47.490;19.030;2022-12-29T12:34:59;30.77;;;19.10;;
67979;SDS011;54760;47.490;19.030;2022-12-29T12:37:41;29.35;;;19.27;;
67979;SDS011;54760;47.490;19.030;2022-12-29T12:46:19;28.87;;;18.02;;
67979;SDS011;54760;47.490;19.030;2022-12-29T12:54:44;29.42;;;18.33;;
67979;SDS011;54760;47.490;19.030;2022-12-29T13:00:19;31.50;;;19.08;;
67979;SDS011;54760;47.490;19.030;2022-12-29T13:03:04;27.35;;;18.42;;
67979;SDS011;54760;47.490;19.030;2022-12-29T13:28:25;29.45;;;20.20;;
67979;SDS011;54760;47.490;19.030;2022-12-29T13:36:38;30.33;;;19.48;;
67979;SDS011;54760;47.490;19.030;2022-12-29T13:39:18;29.23;;;19.90;;
67979;SDS011;54760;47.490;19.030;2022-12-29T13:41:51;30.88;;;19.52;;
67979;SDS011;54760;47.490;19.030;2022-12-29T13:44:23;29.77;;;20.62;;
67979;SDS011;54760;47.490;19.030;2022-12-29T13:46:53;33.25;;;21.00;;
67979;SDS011;54760;47.490;19.030;2022-12-29T13:49:23;36.75;;;20.65;;
67979;SDS011;54760;47.490;19.030;2022-12-29T13:51:55;29.75;;;20.08;;
67979;SDS011;54760;47.490;19.030;2022-12-29T13:57:12;27.37;;;18.98;;
67979;SDS011;54760;47.490;19.030;2022-12-29T13:59:51;32.92;;;21.25;;
67979;SDS011;54760;47.490;19.030;2022-12-29T14:02:26;28.85;;;20.90;;
67979;SDS011;54760;47.490;19.030;2022-12-29T14:07:44;28.50;;;19.65;;
67979;SDS011;54760;47.490;19.030;2022-12-29T14:10:31;35.10;;;20.45;;
67979;SDS011;54760;47.490;19.030;2022-12-29T14:13:09;30.77;;;19.90;;
67979;SDS011;54760;47.490;19.030;2022-12-29T14:15:38;29.85;;;20.08;;
67979;SDS011;54760;47.490;19.030;2022-12-29T14:18:16;32.90;;;20.67;;
67979;SDS011;54760;47.490;19.030;2022-12-29T14:20:52;30.70;;;20.52;;
67979;SDS011;54760;47.490;19.030;2022-12-29T14:23:27;31.83;;;21.42;;
67979;SDS011;54760;47.490;19.030;2022-12-29T14:25:55;33.50;;;20.90;;
67979;SDS011;54760;47.490;19.030;2022-12-29T14:28:31;30.65;;;20.33;;
67979;SDS011;54760;47.490;19.030;2022-12-29T14:31:00;35.47;;;21.62;;
67979;SDS011;54760;47.490;19.030;2022-12-29T14:33:28;32.03;;;20.55;;
67979;SDS011;54760;47.490;19.030;2022-12-29T14:35:56;31.77;;;20.75;;
67979;SDS011;54760;47.490;19.030;2022-12-29T14:38:45;29.98;;;19.98;;
67979;SDS011;54760;47.490;19.030;2022-12-29T14:41:16;34.78;;;20.80;;
67979;SDS011;54760;47.490;19.030;2022-12-29T14:44:22;32.80;;;20.50;;
67979;SDS011;54760;47.490;19.030;2022-12-29T14:46:49;32.30;;;20.73;;
67979;SDS011;54760;47.490;19.030;2022-12-29T14:49:20;34.58;;;20.62;;
67979;SDS011;54760;47.490;19.030;2022-12-29T14:51:49;31.42;;;20.67;;
67979;SDS011;54760;47.490;19.030;2022-12-29T14:57:02;30.83;;;19.55;;
67979;SDS011;54760;47.490;19.030;2022-12-29T14:59:31;32.92;;;20.75;;
67979;SDS011;54760;47.490;19.030;2022-12-29T15:01:58;34.05;;;21.83;;
67979;SDS011;54760;47.490;19.030;2022-12-29T15:04:32;31.77;;;20.27;;
67979;SDS011;54760;47.490;19.030;2022-12-29T15:07:00;35.25;;;20.90;;
67979;SDS011;54760;47.490;19.030;2022-12-29T15:09:35;38.95;;;22.80;;
67979;SDS011;54760;47.490;19.030;2022-12-29T15:14:59;33.38;;;21.85;;
67979;SDS011;54760;47.490;19.030;2022-12-29T15:17:26;35.00;;;20.90;;
67979;SDS011;54760;47.490;19.030;2022-12-29T15:19:54;35.35;;;21.73;;
67979;SDS011;54760;47.490;19.030;2022-12-29T15:22:21;32.83;;;20.40;;
67979;SDS011;54760;47.490;19.030;2022-12-29T15:24:49;35.38;;;20.48;;
67979;SDS011;54760;47.490;19.030;2022-12-29T15:27:17;33.80;;;21.75;;
67979;SDS011;54760;47.490;19.030;2022-12-29T15:29:45;34.25;;;22.45;;
67979;SDS011;54760;47.490;19.030;2022-12-29T15:34:40;32.35;;;20.65;;
67979;SDS011;54760;47.490;19.030;2022-12-29T15:37:06;36.85;;;21.33;;
67979;SDS011;54760;47.490;19.030;2022-12-29T15:39:33;32.75;;;21.00;;
67979;SDS011;54760;47.490;19.030;2022-12-29T15:44:51;34.00;;;21.87;;
67979;SDS011;54760;47.490;19.030;2022-12-29T15:47:18;33.05;;;20.52;;
67979;SDS011;54760;47.490;19.030;2022-12-29T15:49:49;33.22;;;21.30;;
67979;SDS011;54760;47.490;19.030;2022-12-29T15:52:18;36.55;;;23.23;;
67979;SDS011;54760;47.490;19.030;2022-12-29T15:54:46;34.90;;;20.50;;
67979;SDS011;54760;47.490;19.030;2022-12-29T15:57:29;34.38;;;20.58;;
67979;SDS011;54760;47.490;19.030;2022-12-29T16:00:00;35.58;;;20.52;;
67979;SDS011;54760;47.490;19.030;2022-12-29T16:02:27;33.58;;;21.52;;
67979;SDS011;54760;47.490;19.030;2022-12-29T16:04:53;34.05;;;21.30;;
67979;SDS011;54760;47.490;19.030;2022-12-29T16:07:29;35.90;;;21.77;;
67979;SDS011;54760;47.490;19.030;2022-12-29T16:09:58;36.40;;;22.30;;
67979;SDS011;54760;47.490;19.030;2022-12-29T16:12:33;34.25;;;21.48;;
67979;SDS011;54760;47.490;19.030;2022-12-29T16:15:01;36.78;;;21.65;;
67979;SDS011;54760;47.490;19.030;2022-12-29T16:17:34;36.38;;;22.27;;
67979;SDS011;54760;47.490;19.030;2022-12-29T16:20:24;35.88;;;21.55;;
67979;SDS011;54760;47.490;19.030;2022-12-29T16:22:56;32.65;;;22.15;;
67979;SDS011;54760;47.490;19.030;2022-12-29T16:25:31;36.00;;;21.85;;
67979;SDS011;54760;47.490;19.030;2022-12-29T16:27:59;34.05;;;22.25;;
67979;SDS011;54760;47.490;19.030;2022-12-29T16:30:27;37.72;;;22.52;;
67979;SDS011;54760;47.490;19.030;2022-12-29T16:32:55;36.05;;;23.30;;
67979;SDS011;54760;47.490;19.030;2022-12-29T16:35:23;34.03;;;22.05;;
67979;SDS011;54760;47.490;19.030;2022-12-29T16:38:10;37.85;;;23.98;;
67979;SDS011;54760;47.490;19.030;2022-12-29T16:40:52;41.45;;;23.67;;